Time;durP1;ratioP1;P1;durP2;ratioP2;P2;SDS_P1;SDS_P2;PMS_P1;PMS_P2;Temp;Humidity;BMP_temperature;BMP_pressure;BME280_temperature;BME280_humidity;BME280_pressure;Samples;Min_cycle;Max_cycle;Signal;HPM_P1;HPM_P2
2022/09/08 00:00:30;;;;;;;7.38;3.05;;;16.40;59.90;;;;;;5093829;27;20032;-63
2022/09/08 00:02:56;;;;;;;6.38;3.00;;;16.50;66.50;;;;;;5114701;28;20092;-63
2022/09/08 00:05:24;;;;;;;4.68;2.53;;;16.50;61.90;;;;;;5104159;27;20063;-63
2022/09/08 00:07:53;;;;;;;6.00;3.08;;;16.50;68.40;;;;;;5095144;27;20024;-62
2022/09/08 00:10:19;;;;;;;10.18;3.25;;;16.50;69.50;;;;;;5108609;28;20122;-63
2022/09/08 00:12:47;;;;;;;6.80;2.90;;;16.50;69.80;;;;;;5092313;28;20028;-63
2022/09/08 00:15:13;;;;;;;5.40;2.95;;;16.50;67.50;;;;;;5109776;28;20118;-62
2022/09/08 00:17:38;;;;;;;9.20;3.28;;;16.50;62.10;;;;;;5092114;28;20088;-61
2022/09/08 00:20:06;;;;;;;3.67;2.55;;;16.50;63.00;;;;;;5109337;28;20020;-61
2022/09/08 00:22:31;;;;;;;3.90;2.58;;;16.50;60.10;;;;;;5093572;28;20024;-62
2022/09/08 00:24:57;;;;;;;6.68;3.00;;;16.40;58.70;;;;;;5106932;28;20502;-60
2022/09/08 00:27:22;;;;;;;8.02;3.03;;;16.40;61.00;;;;;;5111858;28;20035;-61
2022/09/08 00:29:48;;;;;;;7.53;2.58;;;16.40;60.10;;;;;;5095162;28;20674;-61
2022/09/08 00:32:14;;;;;;;7.70;2.88;;;16.40;56.40;;;;;;5110554;28;20024;-61
2022/09/08 00:34:39;;;;;;;6.03;3.53;;;16.40;67.50;;;;;;5098893;28;20084;-61
2022/09/08 00:37:05;;;;;;;5.38;2.45;;;16.40;62.10;;;;;;5111660;28;20059;-61
2022/09/08 00:39:30;;;;;;;5.10;2.33;;;16.30;66.60;;;;;;5092195;28;20062;-60
2022/09/08 00:41:56;;;;;;;6.43;2.55;;;16.30;67.70;;;;;;5111829;28;20031;-61
2022/09/08 00:44:48;;;;;;;4.20;2.30;;;16.30;66.10;;;;;;5090807;28;20024;-60
2022/09/08 00:47:22;;;;;;;8.40;3.33;;;16.20;66.80;;;;;;5111639;28;20027;-61
2022/09/08 00:49:52;;;;;;;5.78;2.85;;;16.20;60.90;;;;;;5078315;28;20494;-61
2022/09/08 00:52:18;;;;;;;5.25;2.60;;;16.20;65.70;;;;;;5111363;28;20039;-61
2022/09/08 00:54:44;;;;;;;5.90;3.33;;;16.10;56.00;;;;;;5093340;28;20537;-61
2022/09/08 00:57:10;;;;;;;6.07;3.10;;;16.20;54.70;;;;;;5111424;28;20081;-60
2022/09/08 00:59:36;;;;;;;5.63;3.15;;;16.10;55.90;;;;;;5090869;28;20569;-61
2022/09/08 01:02:19;;;;;;;7.28;2.72;;;16.20;56.50;;;;;;5111421;28;20072;-61
2022/09/08 01:04:44;;;;;;;4.50;2.40;;;16.20;58.00;;;;;;5076193;28;20043;-60
2022/09/08 01:13:04;;;;;;;4.45;2.50;;;16.10;55.70;;;;;;5111149;28;20031;-61
2022/09/08 01:15:30;;;;;;;5.63;2.97;;;16.00;58.70;;;;;;5098606;27;20753;-61
2022/09/08 01:17:56;;;;;;;4.57;2.58;;;16.00;55.60;;;;;;5089931;28;20070;-61
2022/09/08 01:20:46;;;;;;;4.63;2.20;;;16.00;59.70;;;;;;5107917;28;20027;-61
2022/09/08 01:23:22;;;;;;;5.93;2.90;;;15.90;61.50;;;;;;5081854;28;20039;-60
2022/09/08 01:25:53;;;;;;;;;;;15.90;57.20;;;;;;5092860;28;20368;-61
2022/09/08 01:28:25;;;;;;;6.97;2.50;;;15.90;54.60;;;;;;5090522;28;20303;-60
2022/09/08 01:30:51;;;;;;;6.32;2.30;;;15.80;61.90;;;;;;5092941;28;20024;-61
2022/09/08 01:33:19;;;;;;;7.55;2.85;;;15.80;58.20;;;;;;5110179;28;20047;-61
2022/09/08 01:35:44;;;;;;;8.32;2.80;;;15.80;54.50;;;;;;5099727;28;20525;-60
2022/09/08 01:38:10;;;;;;;9.10;3.20;;;15.80;53.80;;;;;;5090630;28;20028;-61
2022/09/08 01:40:38;;;;;;;3.38;2.42;;;15.80;61.30;;;;;;5107928;28;20020;-61
2022/09/08 01:43:06;;;;;;;5.50;2.75;;;15.70;55.70;;;;;;5090575;28;20036;-61
2022/09/08 01:45:31;;;;;;;5.90;2.92;;;15.70;58.30;;;;;;5107906;28;20395;-60
2022/09/08 01:47:57;;;;;;;8.05;2.95;;;15.70;58.00;;;;;;5090610;28;20028;-61
2022/09/08 01:50:22;;;;;;;10.95;2.67;;;15.60;56.00;;;;;;5107598;28;20031;-61
2022/09/08 01:52:48;;;;;;;4.85;2.50;;;15.60;56.30;;;;;;5110201;28;20115;-61
2022/09/08 01:55:14;;;;;;;6.57;2.40;;;15.60;58.80;;;;;;5094956;28;20441;-61
2022/09/08 01:57:39;;;;;;;4.45;2.63;;;15.50;54.70;;;;;;5110207;28;20068;-61
2022/09/08 02:00:05;;;;;;;5.05;2.60;;;15.50;58.00;;;;;;5093334;28;20115;-60
2022/09/08 02:02:31;;;;;;;6.28;2.25;;;15.50;60.80;;;;;;5109949;28;20127;-61
2022/09/08 02:04:57;;;;;;;7.13;2.35;;;15.50;57.00;;;;;;5091932;28;20042;-61
2022/09/08 02:07:22;;;;;;;14.95;2.80;;;15.40;58.30;;;;;;5110009;28;20106;-61
2022/09/08 02:09:48;;;;;;;6.45;2.90;;;15.40;54.10;;;;;;5090468;28;20457;-60
2022/09/08 02:12:14;;;;;;;7.45;2.65;;;15.40;62.60;;;;;;5108643;28;20028;-61
2022/09/08 02:14:40;;;;;;;3.97;2.40;;;15.30;54.40;;;;;;5088846;28;20085;-60
2022/09/08 02:17:05;;;;;;;7.45;3.00;;;15.30;56.80;;;;;;5110089;28;20046;-61
2022/09/08 02:19:31;;;;;;;8.48;3.00;;;15.30;55.70;;;;;;5089841;28;20047;-61
2022/09/08 02:21:56;;;;;;;5.63;2.85;;;15.30;55.20;;;;;;5107618;28;20384;-61
2022/09/08 02:24:21;;;;;;;4.70;2.45;;;15.20;52.90;;;;;;5079952;28;20107;-61
2022/09/08 02:26:47;;;;;;;6.38;2.65;;;15.30;53.40;;;;;;5105841;28;20487;-61
2022/09/08 02:29:13;;;;;;;8.93;3.08;;;15.20;54.50;;;;;;5109592;28;20437;-61
2022/09/08 02:31:39;;;;;;;5.60;2.80;;;15.20;52.20;;;;;;5087191;28;20031;-61
2022/09/08 02:34:05;;;;;;;4.60;2.47;;;15.20;53.00;;;;;;5104182;28;20044;-60
2022/09/08 02:36:31;;;;;;;6.15;2.72;;;15.20;53.70;;;;;;5102964;28;20409;-61
2022/09/08 02:38:56;;;;;;;8.80;2.40;;;15.20;58.50;;;;;;5089771;28;20088;-61
2022/09/08 02:41:24;;;;;;;8.95;2.90;;;15.10;51.50;;;;;;5106894;28;20169;-61
2022/09/08 02:43:50;;;;;;;5.28;2.97;;;15.10;56.50;;;;;;5109136;28;20051;-61
2022/09/08 02:46:16;;;;;;;6.20;2.55;;;15.10;51.80;;;;;;5087690;28;20109;-60
2022/09/08 02:48:42;;;;;;;8.77;2.95;;;15.10;53.10;;;;;;5108581;28;20176;-60
2022/09/08 02:51:10;;;;;;;9.85;3.08;;;15.10;51.10;;;;;;5087587;28;20523;-61
2022/09/08 02:53:37;;;;;;;7.30;2.78;;;15.10;51.20;;;;;;5109056;28;20616;-61
2022/09/08 02:56:03;;;;;;;4.85;2.90;;;15.10;52.20;;;;;;5087445;28;20117;-61
2022/09/08 02:58:29;;;;;;;5.63;2.95;;;15.00;55.60;;;;;;5108627;28;20123;-61
2022/09/08 03:00:55;;;;;;;5.85;2.40;;;15.00;52.90;;;;;;5097502;28;20020;-61
2022/09/08 03:03:22;;;;;;;5.07;3.00;;;15.00;50.80;;;;;;5089308;28;20450;-60
2022/09/08 03:05:47;;;;;;;6.03;3.15;;;15.00;50.90;;;;;;5106632;28;20063;-60
2022/09/08 03:08:13;;;;;;;6.75;3.05;;;15.00;50.30;;;;;;5089216;28;20031;-61
2022/09/08 03:10:39;;;;;;;4.93;2.75;;;15.00;50.90;;;;;;5106571;28;20024;-61
2022/09/08 03:13:04;;;;;;;5.57;2.60;;;15.00;52.20;;;;;;5089096;28;20109;-61
2022/09/08 03:15:31;;;;;;;7.97;3.00;;;15.00;53.90;;;;;;5106399;28;20055;-61
2022/09/08 03:17:57;;;;;;;4.90;3.20;;;14.90;50.90;;;;;;5109213;28;20020;-61
2022/09/08 03:20:24;;;;;;;5.78;2.35;;;14.90;54.60;;;;;;5092255;28;20028;-60
2022/09/08 03:22:51;;;;;;;6.28;2.95;;;14.90;55.20;;;;;;5097891;28;20110;-66
2022/09/08 03:25:17;;;;;;;4.60;2.90;;;14.90;50.50;;;;;;5090751;28;20049;-67
2022/09/08 03:27:43;;;;;;;5.50;2.90;;;14.90;51.60;;;;;;5109090;28;20081;-66
2022/09/08 03:30:13;;;;;;;6.00;2.92;;;14.80;53.10;;;;;;5090154;28;20028;-66
2022/09/08 03:32:41;;;;;;;6.22;2.60;;;14.80;52.30;;;;;;5108864;28;20039;-62
2022/09/08 03:35:11;;;;;;;9.65;3.05;;;14.80;53.60;;;;;;5089059;28;20092;-61
2022/09/08 03:37:38;;;;;;;10.23;3.45;;;14.80;50.90;;;;;;5109134;28;20072;-62
2022/09/08 03:40:05;;;;;;;5.10;2.78;;;14.80;51.20;;;;;;5088844;28;20036;-61
2022/09/08 03:42:35;;;;;;;2.92;2.38;;;14.70;53.60;;;;;;5108780;28;20102;-62
2022/09/08 03:45:05;;;;;;;6.75;2.60;;;14.70;55.50;;;;;;5091733;28;20074;-62
2022/09/08 03:47:31;;;;;;;8.23;2.50;;;14.70;51.80;;;;;;5112699;28;20028;-61
2022/09/08 03:49:58;;;;;;;7.35;2.53;;;14.70;52.20;;;;;;5091510;28;20028;-61
2022/09/08 03:52:24;;;;;;;9.18;3.03;;;14.70;52.20;;;;;;5112392;28;20031;-62
2022/09/08 03:54:53;;;;;;;7.28;3.60;;;14.70;54.90;;;;;;5089423;28;20036;-61
2022/09/08 03:57:26;;;;;;;5.65;2.60;;;14.60;52.70;;;;;;5093091;28;20040;-61
2022/09/08 03:59:54;;;;;;;6.18;3.15;;;14.60;54.50;;;;;;5112062;28;20057;-62
2022/09/08 04:02:20;;;;;;;7.38;3.03;;;14.60;52.90;;;;;;5111980;28;20028;-61
2022/09/08 04:04:51;;;;;;;5.40;2.80;;;14.60;52.10;;;;;;5092557;28;20073;-62
2022/09/08 04:07:18;;;;;;;5.28;3.10;;;14.50;53.30;;;;;;5103619;28;20679;-61
2022/09/08 04:09:44;;;;;;;4.90;2.78;;;14.60;50.80;;;;;;5111775;28;20419;-61
2022/09/08 04:12:10;;;;;;;4.38;2.75;;;14.50;54.60;;;;;;5090576;28;20036;-61
2022/09/08 04:14:36;;;;;;;4.75;2.88;;;14.50;50.30;;;;;;5111674;28;20027;-62
2022/09/08 04:17:02;;;;;;;4.68;3.03;;;14.50;51.50;;;;;;5090272;28;20556;-61
2022/09/08 04:19:27;;;;;;;6.30;3.65;;;14.50;52.60;;;;;;5111496;28;20092;-62
2022/09/08 04:21:53;;;;;;;6.47;3.10;;;14.50;51.60;;;;;;5090341;28;20395;-62
2022/09/08 04:24:19;;;;;;;7.40;3.45;;;14.50;50.30;;;;;;5106816;28;20036;-62
2022/09/08 04:26:45;;;;;;;8.65;3.33;;;14.50;51.60;;;;;;5090283;28;20024;-62
2022/09/08 04:29:11;;;;;;;6.00;3.10;;;14.50;50.70;;;;;;5111171;28;20035;-62
2022/09/08 04:31:36;;;;;;;7.43;3.05;;;14.50;51.10;;;;;;5088746;28;20032;-61
2022/09/08 04:34:03;;;;;;;6.38;2.65;;;14.50;51.50;;;;;;5106796;28;20028;-61
2022/09/08 04:36:30;;;;;;;7.30;3.40;;;14.50;50.90;;;;;;5102053;28;20063;-61
2022/09/08 04:38:57;;;;;;;9.10;3.45;;;14.50;50.30;;;;;;5091494;28;20830;-61
2022/09/08 04:41:23;;;;;;;8.85;3.25;;;14.50;53.70;;;;;;5109237;28;20035;-62
2022/09/08 04:43:49;;;;;;;5.25;3.25;;;14.50;50.70;;;;;;5110328;27;20403;-62
2022/09/08 04:46:16;;;;;;;6.47;3.35;;;14.60;50.30;;;;;;5099764;28;20028;-62
2022/09/08 04:48:43;;;;;;;6.10;3.28;;;14.60;49.60;;;;;;5089170;28;20172;-61
2022/09/08 04:51:14;;;;;;;5.18;3.17;;;14.60;50.70;;;;;;5101858;28;20036;-62
2022/09/08 04:53:40;;;;;;;6.90;3.20;;;14.70;50.80;;;;;;5080953;28;20031;-62
2022/09/08 04:56:07;;;;;;;5.60;3.25;;;14.70;48.80;;;;;;5092824;28;20124;-61
2022/09/08 04:58:36;;;;;;;7.00;3.33;;;14.70;49.30;;;;;;5099010;28;20046;-62
2022/09/08 05:01:10;;;;;;;6.97;3.42;;;14.80;48.60;;;;;;5095508;28;20038;-60
2022/09/08 05:03:36;;;;;;;7.85;3.80;;;14.90;50.80;;;;;;5089853;28;20043;-62
2022/09/08 05:06:07;;;;;;;8.45;3.35;;;14.90;48.30;;;;;;5107363;28;20022;-61
2022/09/08 05:08:33;;;;;;;9.05;3.35;;;15.00;48.10;;;;;;5089861;28;20024;-62
2022/09/08 05:10:59;;;;;;;5.70;2.95;;;15.00;49.90;;;;;;5107329;28;20076;-61
2022/09/08 05:13:25;;;;;;;6.05;3.15;;;15.00;50.00;;;;;;5109671;28;20118;-62
2022/09/08 05:15:50;;;;;;;7.18;2.97;;;15.00;47.60;;;;;;5094047;28;20102;-62
2022/09/08 05:18:16;;;;;;;7.75;3.47;;;15.10;48.50;;;;;;5109958;27;20727;-63
2022/09/08 05:20:41;;;;;;;4.78;3.47;;;15.00;48.00;;;;;;5092366;28;20080;-62
2022/09/08 05:23:07;;;;;;;7.72;3.85;;;15.10;48.40;;;;;;5099169;28;20043;-63
2022/09/08 05:25:32;;;;;;;8.00;3.60;;;15.10;49.10;;;;;;5090638;28;20099;-63
2022/09/08 05:27:58;;;;;;;7.45;3.60;;;15.10;48.60;;;;;;5109673;28;20015;-61
2022/09/08 05:30:23;;;;;;;7.25;3.08;;;15.10;49.00;;;;;;5089255;28;20689;-63
2022/09/08 05:32:49;;;;;;;7.78;3.30;;;15.20;49.70;;;;;;5109555;28;20030;-63
2022/09/08 05:35:14;;;;;;;5.32;3.20;;;15.30;49.20;;;;;;5087627;28;20083;-62
2022/09/08 05:37:40;;;;;;;6.47;3.45;;;15.20;47.80;;;;;;5109395;28;20471;-63
2022/09/08 05:40:06;;;;;;;6.40;3.72;;;15.30;49.20;;;;;;5087945;28;20046;-63
2022/09/08 05:42:32;;;;;;;9.63;3.47;;;15.40;48.30;;;;;;5106854;28;20658;-64
2022/09/08 05:44:57;;;;;;;7.65;3.85;;;15.40;47.70;;;;;;5107524;28;20039;-62
2022/09/08 05:47:23;;;;;;;7.07;3.83;;;15.50;47.60;;;;;;5087482;28;20365;-63
2022/09/08 05:49:48;;;;;;;9.65;3.80;;;15.50;49.30;;;;;;5108090;28;20032;-63
2022/09/08 05:52:14;;;;;;;7.45;3.50;;;15.60;48.10;;;;;;5086772;28;20781;-62
2022/09/08 05:54:40;;;;;;;7.28;3.60;;;15.70;46.60;;;;;;5107173;28;20550;-63
2022/09/08 05:57:06;;;;;;;6.78;3.95;;;15.70;47.10;;;;;;5086972;28;20024;-62
2022/09/08 05:59:32;;;;;;;6.03;3.35;;;15.90;47.60;;;;;;5108028;28;20184;-63
2022/09/08 06:01:57;;;;;;;10.20;3.83;;;15.90;46.00;;;;;;5087141;28;20046;-63
2022/09/08 06:04:23;;;;;;;5.70;3.45;;;16.10;45.70;;;;;;5107922;28;20030;-63
2022/09/08 06:06:48;;;;;;;7.82;3.72;;;16.10;45.50;;;;;;5086081;28;20453;-61
2022/09/08 06:09:14;;;;;;;6.97;3.80;;;16.20;47.60;;;;;;5107957;28;20110;-60
2022/09/08 06:11:41;;;;;;;7.13;3.75;;;16.20;45.70;;;;;;5087006;28;20570;-60
2022/09/08 06:14:06;;;;;;;6.38;3.78;;;16.40;47.00;;;;;;5107871;28;20047;-60
2022/09/08 06:16:33;;;;;;;10.68;4.20;;;16.50;46.20;;;;;;5096287;28;20043;-61
2022/09/08 06:19:00;;;;;;;7.15;3.83;;;16.50;45.60;;;;;;5088550;28;20020;-62
2022/09/08 06:21:28;;;;;;;8.80;4.05;;;16.60;47.50;;;;;;5105919;28;20788;-55
2022/09/08 06:24:00;;;;;;;9.77;3.80;;;16.70;44.70;;;;;;5081037;28;20480;-57
2022/09/08 06:26:47;;;;;;;8.25;4.72;;;16.70;44.70;;;;;;5083836;28;20088;-54
2022/09/08 06:29:37;;;;;;;7.80;3.60;;;16.60;45.50;;;;;;5088157;28;20421;-52
2022/09/08 06:32:26;;;;;;;8.52;4.10;;;16.50;46.00;;;;;;5093966;28;20059;-55
2022/09/08 06:35:03;;;;;;;5.55;3.45;;;16.50;46.30;;;;;;5089139;28;20035;-56
2022/09/08 06:37:41;;;;;;;9.32;4.25;;;16.50;47.20;;;;;;5100416;28;20039;-56
2022/09/08 06:40:24;;;;;;;8.10;4.03;;;16.40;47.60;;;;;;5067494;28;20108;-54
2022/09/08 06:43:01;;;;;;;6.95;4.20;;;16.40;46.80;;;;;;5106475;28;20034;-55
2022/09/08 06:45:33;;;;;;;6.47;3.42;;;16.40;47.30;;;;;;5105871;28;20053;-58
2022/09/08 06:48:10;;;;;;;8.38;3.85;;;16.50;47.50;;;;;;5108220;28;20097;-61
2022/09/08 06:50:44;;;;;;;11.40;4.05;;;16.50;47.80;;;;;;5067899;28;20037;-53
2022/09/08 06:53:17;;;;;;;7.15;4.07;;;16.60;47.70;;;;;;5107830;28;20326;-55
2022/09/08 06:56:23;;;;;;;9.55;4.30;;;16.60;48.30;;;;;;5069399;28;20032;-55
2022/09/08 06:58:53;;;;;;;6.28;3.83;;;16.70;46.50;;;;;;5067130;28;20025;-55
2022/09/08 07:01:24;;;;;;;9.70;4.10;;;16.70;48.60;;;;;;5074778;28;20040;-53
2022/09/08 07:03:52;;;;;;;8.32;4.05;;;16.80;47.80;;;;;;5108705;28;20582;-54
2022/09/08 07:06:21;;;;;;;8.35;4.28;;;16.90;47.80;;;;;;5093355;28;20036;-51
2022/09/08 07:09:10;;;;;;;10.45;3.88;;;16.90;46.50;;;;;;5108904;28;20609;-54
2022/09/08 07:11:54;;;;;;;8.65;4.15;;;16.90;46.70;;;;;;5095222;28;20039;-53
2022/09/08 07:14:57;;;;;;;9.40;4.90;;;16.90;46.40;;;;;;5068113;28;20097;-50
2022/09/08 07:17:33;;;;;;;7.80;4.68;;;16.90;47.10;;;;;;5097428;28;20072;-53
2022/09/08 07:19:59;;;;;;;5.95;3.58;;;16.90;47.50;;;;;;5070783;28;20036;-51
2022/09/08 07:22:51;;;;;;;6.10;4.28;;;17.00;49.00;;;;;;5109293;28;20031;-52
2022/09/08 07:25:37;;;;;;;6.90;3.63;;;17.10;46.70;;;;;;5113188;28;20501;-52
2022/09/08 07:28:21;;;;;;;7.75;4.57;;;17.30;47.30;;;;;;5072241;28;20210;-53
2022/09/08 07:31:00;;;;;;;6.78;3.72;;;17.30;48.10;;;;;;5073166;28;20500;-52
2022/09/08 07:33:39;;;;;;;7.38;4.07;;;17.40;49.10;;;;;;5112368;28;20032;-61
2022/09/08 07:36:24;;;;;;;9.23;4.53;;;17.50;47.80;;;;;;5077852;28;20109;-61
2022/09/08 07:38:55;;;;;;;9.23;4.43;;;17.50;46.40;;;;;;5112383;28;20030;-61
2022/09/08 07:41:40;;;;;;;8.20;4.22;;;17.70;46.90;;;;;;5096279;27;20041;-61
2022/09/08 07:44:13;;;;;;;9.52;4.07;;;17.80;46.70;;;;;;5071741;28;20032;-61
2022/09/08 07:46:49;;;;;;;10.88;5.07;;;18.00;46.10;;;;;;5086651;28;20042;-61
2022/09/08 07:49:43;;;;;;;12.90;4.75;;;18.00;47.90;;;;;;5071653;28;20086;-61
2022/09/08 07:52:19;;;;;;;5.68;4.20;;;18.00;46.80;;;;;;5094709;28;20038;-61
2022/09/08 07:54:44;;;;;;;;;;;18.10;48.20;;;;;;5072115;28;20033;-61
2022/09/08 07:57:18;;;;;;;9.97;5.30;;;18.20;48.20;;;;;;5108761;28;19907;-61
2022/09/08 08:00:30;;;;;;;7.20;4.47;;;18.30;48.30;;;;;;5070080;28;20222;-61
2022/09/08 08:03:09;;;;;;;10.40;5.22;;;18.40;48.70;;;;;;5094104;28;20522;-61
2022/09/08 08:05:45;;;;;;;9.35;5.40;;;18.70;47.20;;;;;;5071460;28;20020;-62
2022/09/08 08:08:26;;;;;;;11.32;5.90;;;18.80;47.50;;;;;;5071365;28;20028;-61
2022/09/08 08:11:13;;;;;;;8.10;4.93;;;19.20;46.80;;;;;;5071412;28;20020;-61
2022/09/08 08:13:56;;;;;;;10.15;5.30;;;19.60;45.50;;;;;;5111740;28;20028;-61
2022/09/08 08:16:51;;;;;;;14.48;5.70;;;19.50;44.20;;;;;;5079843;28;20035;-61
2022/09/08 08:19:53;;;;;;;10.27;5.40;;;19.30;46.60;;;;;;5090379;28;20339;-61
2022/09/08 08:22:29;;;;;;;7.57;4.97;;;19.60;46.00;;;;;;5094883;28;20514;-60
2022/09/08 08:25:16;;;;;;;;;;;19.70;44.90;;;;;;5091902;28;20020;-61
2022/09/08 08:27:42;;;;;;;10.48;5.75;;;19.40;44.70;;;;;;5109622;28;20377;-61
2022/09/08 08:30:18;;;;;;;8.63;4.97;;;19.40;46.20;;;;;;5110059;28;20112;-61
2022/09/08 08:32:46;;;;;;;;;;;19.60;47.30;;;;;;5102023;28;20039;-61
2022/09/08 08:35:18;;;;;;;7.22;4.53;;;19.80;47.20;;;;;;5110828;28;20295;-61
2022/09/08 08:37:47;;;;;;;7.63;4.78;;;20.20;46.30;;;;;;5089200;28;20031;-61
2022/09/08 08:40:49;;;;;;;15.02;5.00;;;20.40;43.60;;;;;;5110924;28;20028;-61
2022/09/08 08:43:57;;;;;;;9.82;5.55;;;20.50;41.60;;;;;;5108629;28;20020;-61
2022/09/08 08:46:43;;;;;;;6.80;4.60;;;20.40;42.00;;;;;;5077859;28;20517;-61
2022/09/08 08:49:12;;;;;;;9.52;4.93;;;20.50;46.30;;;;;;5111180;28;20025;-61
2022/09/08 08:51:37;;;;;;;11.38;4.85;;;20.60;45.50;;;;;;5095188;28;20039;-61
2022/09/08 08:54:32;;;;;;;6.57;4.68;;;20.50;43.60;;;;;;5109860;28;20043;-61
2022/09/08 08:57:28;;;;;;;8.13;4.40;;;20.30;42.30;;;;;;5086608;28;20107;-61
2022/09/08 09:00:14;;;;;;;5.95;4.60;;;20.30;45.90;;;;;;5070229;28;20404;-61
2022/09/08 09:02:51;;;;;;;;;;;20.40;45.20;;;;;;5098594;28;20020;-61
2022/09/08 09:05:42;;;;;;;12.45;4.75;;;20.40;42.40;;;;;;5069969;28;19957;-61
2022/09/08 09:08:31;;;;;;;9.57;5.05;;;20.30;43.00;;;;;;5105717;28;20032;-61
2022/09/08 09:11:15;;;;;;;9.57;5.78;;;20.10;43.70;;;;;;5068467;28;20488;-61
2022/09/08 09:14:09;;;;;;;6.88;4.97;;;19.90;45.50;;;;;;5110490;28;20119;-61
2022/09/08 09:17:14;;;;;;;7.25;4.82;;;19.90;44.10;;;;;;5078736;28;20032;-61
2022/09/08 09:20:16;;;;;;;8.68;4.80;;;19.80;44.90;;;;;;5069817;28;20032;-61
2022/09/08 09:23:02;;;;;;;16.17;5.78;;;19.70;44.30;;;;;;5091941;28;20027;-61
2022/09/08 09:25:33;;;;;;;;;;;19.70;43.60;;;;;;5111082;28;20027;-61
2022/09/08 09:28:37;;;;;;;10.55;5.45;;;19.60;43.90;;;;;;5088302;28;20303;-61
2022/09/08 09:31:21;;;;;;;11.65;5.35;;;19.60;44.90;;;;;;5068401;28;20119;-61
2022/09/08 09:34:06;;;;;;;11.65;5.03;;;19.60;45.90;;;;;;5107962;28;20038;-61
2022/09/08 09:36:43;;;;;;;8.57;5.63;;;19.60;45.50;;;;;;5092307;28;20104;-61
2022/09/08 09:39:18;;;;;;;8.68;4.90;;;19.60;45.70;;;;;;5092511;28;20030;-61
2022/09/08 09:42:17;;;;;;;9.33;5.10;;;19.60;46.50;;;;;;5078924;28;20041;-61
2022/09/08 09:45:16;;;;;;;14.25;6.10;;;19.70;46.10;;;;;;5069535;28;20819;-61
2022/09/08 09:47:41;;;;;;;11.27;6.10;;;19.70;45.40;;;;;;5094995;28;20036;-61
2022/09/08 09:50:39;;;;;;;10.70;6.30;;;19.60;46.80;;;;;;5090194;28;20032;-61
2022/09/08 09:53:23;;;;;;;16.95;5.82;;;19.60;45.90;;;;;;5066723;28;20055;-61
2022/09/08 09:56:26;;;;;;;8.43;5.32;;;19.50;46.70;;;;;;5069445;28;20028;-61
2022/09/08 09:59:13;;;;;;;8.40;5.45;;;19.40;46.00;;;;;;5069262;28;20476;-61
2022/09/08 10:02:08;;;;;;;10.63;5.45;;;19.40;48.20;;;;;;5106094;28;20442;-61
2022/09/08 10:04:57;;;;;;;10.38;5.53;;;19.30;46.60;;;;;;5089986;28;20130;-61
2022/09/08 10:07:22;;;;;;;10.75;5.82;;;19.20;48.00;;;;;;5086106;28;20036;-61
2022/09/08 10:10:21;;;;;;;9.32;5.50;;;19.20;48.30;;;;;;5089558;28;20039;-61
2022/09/08 10:13:10;;;;;;;14.10;5.90;;;19.20;48.90;;;;;;5094792;28;20032;-61
2022/09/08 10:16:06;;;;;;;10.07;5.80;;;19.20;48.90;;;;;;5069052;28;20047;-61
2022/09/08 10:18:50;;;;;;;7.97;5.55;;;19.10;49.20;;;;;;5107351;28;20020;-61
2022/09/08 10:21:55;;;;;;;14.77;5.95;;;19.10;50.10;;;;;;5107291;28;20444;-61
2022/09/08 10:24:50;;;;;;;10.80;6.43;;;19.10;49.70;;;;;;5086297;28;20491;-61
2022/09/08 10:27:38;;;;;;;9.55;6.30;;;19.10;49.20;;;;;;5084564;28;20490;-61
2022/09/08 10:30:24;;;;;;;11.00;5.60;;;18.90;49.70;;;;;;5068806;28;20472;-61
2022/09/08 10:33:04;;;;;;;12.30;5.28;;;18.90;50.50;;;;;;5092998;28;20114;-61
2022/09/08 10:35:47;;;;;;;7.97;5.07;;;18.90;51.60;;;;;;5068798;28;20052;-61
2022/09/08 10:38:35;;;;;;;11.73;6.38;;;19.00;50.90;;;;;;5100509;28;20509;-61
2022/09/08 10:41:38;;;;;;;8.05;5.32;;;18.80;56.60;;;;;;5108994;28;20031;-61
2022/09/08 10:44:22;;;;;;;7.18;4.72;;;18.80;56.90;;;;;;5068295;28;20224;-61
2022/09/08 10:47:23;;;;;;;14.55;5.40;;;18.70;56.00;;;;;;5105965;28;20055;-61
2022/09/08 10:50:17;;;;;;;9.50;5.20;;;18.70;55.10;;;;;;5108993;28;20034;-61
2022/09/08 10:52:50;;;;;;;7.57;4.95;;;18.70;55.40;;;;;;5090596;28;20119;-61
2022/09/08 10:55:41;;;;;;;8.43;5.00;;;18.70;56.30;;;;;;5088641;28;20031;-61
2022/09/08 10:58:25;;;;;;;12.02;5.68;;;18.70;55.70;;;;;;5097646;28;20035;-61
2022/09/08 11:01:20;;;;;;;6.72;4.45;;;18.70;59.60;;;;;;5068494;28;20032;-61
2022/09/08 11:04:10;;;;;;;7.90;4.90;;;18.60;62.00;;;;;;5068459;28;20029;-61
2022/09/08 11:06:35;;;;;;;11.35;5.05;;;18.60;61.60;;;;;;5071486;28;20028;-61
2022/09/08 11:09:22;;;;;;;7.93;4.65;;;18.60;66.20;;;;;;5108651;28;20019;-61
2022/09/08 11:12:20;;;;;;;8.57;4.60;;;18.40;68.30;;;;;;5074388;28;20499;-61
2022/09/08 11:15:22;;;;;;;5.97;4.05;;;18.30;70.50;;;;;;5108742;28;20034;-61
2022/09/08 11:17:50;;;;;;;8.73;4.78;;;18.30;74.40;;;;;;5090777;28;20114;-61
2022/09/08 11:21:00;;;;;;;11.13;5.10;;;18.30;72.00;;;;;;5088739;28;20070;-61
2022/09/08 11:23:25;;;;;;;7.93;5.03;;;18.30;74.10;;;;;;5095315;28;20119;-61
2022/09/08 11:26:20;;;;;;;7.13;4.18;;;18.40;74.00;;;;;;5088908;28;20103;-62
2022/09/08 11:29:01;;;;;;;10.63;4.47;;;18.40;73.40;;;;;;5095507;28;20043;-61
2022/09/08 11:31:51;;;;;;;6.57;4.55;;;18.60;73.80;;;;;;5066893;28;20562;-61
2022/09/08 11:34:27;;;;;;;6.32;4.10;;;18.70;73.90;;;;;;5102326;28;20051;-64
2022/09/08 11:37:15;;;;;;;8.40;4.65;;;18.70;75.00;;;;;;5090367;28;20031;-65
2022/09/08 11:40:17;;;;;;;8.35;4.40;;;18.80;77.90;;;;;;5108743;28;20055;-64
2022/09/08 11:43:20;;;;;;;9.60;4.35;;;18.80;80.20;;;;;;5097386;28;20028;-65
2022/09/08 11:46:04;;;;;;;5.63;3.92;;;18.90;83.00;;;;;;5088782;28;20032;-65
2022/09/08 11:48:59;;;;;;;5.90;4.45;;;18.90;82.30;;;;;;5100591;28;20028;-64
2022/09/08 11:51:58;;;;;;;10.13;4.70;;;19.00;83.60;;;;;;5067945;28;20028;-64
2022/09/08 11:54:44;;;;;;;8.18;5.20;;;19.00;83.00;;;;;;5067618;28;20021;-64
2022/09/08 11:57:28;;;;;;;7.20;4.35;;;19.10;84.70;;;;;;5077354;28;20639;-64
2022/09/08 12:00:21;;;;;;;6.75;4.53;;;19.10;85.10;;;;;;5108498;28;20022;-65
2022/09/08 12:03:15;;;;;;;9.68;5.05;;;19.20;86.70;;;;;;5097029;28;20016;-65
2022/09/08 12:05:53;;;;;;;9.45;4.97;;;19.20;88.20;;;;;;5070769;28;20032;-64
2022/09/08 12:08:37;;;;;;;9.10;4.85;;;19.20;90.10;;;;;;5108887;28;20031;-64
2022/09/08 12:11:20;;;;;;;8.57;4.75;;;19.30;90.40;;;;;;5071210;28;20725;-65
2022/09/08 12:14:23;;;;;;;9.68;4.90;;;19.30;91.10;;;;;;5107525;28;20055;-65
2022/09/08 12:17:10;;;;;;;6.75;4.10;;;19.40;92.60;;;;;;5073831;28;20025;-64
2022/09/08 12:20:15;;;;;;;8.35;4.68;;;19.50;92.20;;;;;;5111769;28;20031;-65
2022/09/08 12:23:00;;;;;;;7.22;4.20;;;19.60;92.00;;;;;;5095090;28;20410;-64
2022/09/08 12:25:48;;;;;;;6.93;4.47;;;19.60;91.10;;;;;;5112037;28;20023;-67
2022/09/08 12:28:43;;;;;;;6.78;5.32;;;19.60;88.40;;;;;;5088814;28;20051;-66
2022/09/08 12:31:20;;;;;;;7.03;4.32;;;19.60;91.20;;;;;;5071004;28;20400;-66
2022/09/08 12:34:08;;;;;;;9.63;5.72;;;19.70;91.00;;;;;;5108846;28;20035;-65
2022/09/08 12:36:42;;;;;;;11.52;5.43;;;19.70;91.30;;;;;;5088216;28;20032;-64
2022/09/08 12:39:19;;;;;;;8.60;6.18;;;19.70;91.40;;;;;;5084543;28;20446;-65
2022/09/08 12:42:16;;;;;;;8.52;5.80;;;19.70;91.30;;;;;;5069945;28;20520;-65
2022/09/08 12:45:04;;;;;;;8.93;5.57;;;19.80;91.80;;;;;;5110553;28;20016;-65
2022/09/08 12:47:40;;;;;;;7.13;5.82;;;19.80;92.60;;;;;;5083507;28;20031;-65
2022/09/08 12:50:18;;;;;;;10.30;5.38;;;19.90;92.70;;;;;;5069770;28;20032;-63
2022/09/08 12:53:16;;;;;;;9.50;5.88;;;20.10;93.00;;;;;;5095346;28;20050;-64
2022/09/08 12:55:57;;;;;;;6.43;4.97;;;20.20;91.10;;;;;;5069575;28;20032;-65
2022/09/08 12:58:26;;;;;;;8.32;5.30;;;20.20;92.20;;;;;;5095831;28;20536;-65
2022/09/08 13:01:18;;;;;;;7.47;6.05;;;20.30;92.40;;;;;;5110145;27;20031;-64
2022/09/08 13:03:45;;;;;;;8.95;5.55;;;20.40;91.80;;;;;;5093148;28;20420;-64
2022/09/08 13:06:26;;;;;;;9.77;5.57;;;20.40;92.60;;;;;;5089800;28;20624;-65
2022/09/08 13:09:06;;;;;;;11.77;5.70;;;20.40;91.70;;;;;;5103463;28;20479;-65
2022/09/08 13:11:51;;;;;;;7.93;5.80;;;20.30;92.00;;;;;;5069248;28;20020;-65
2022/09/08 13:14:26;;;;;;;9.45;5.80;;;20.30;92.90;;;;;;5069027;28;20020;-65
2022/09/08 13:17:01;;;;;;;8.55;5.97;;;20.20;92.90;;;;;;5067363;28;20040;-65
2022/09/08 13:19:29;;;;;;;8.07;5.38;;;20.20;93.80;;;;;;5109622;28;20502;-64
2022/09/08 13:22:13;;;;;;;9.18;5.20;;;20.20;93.60;;;;;;5088526;28;20028;-65
2022/09/08 13:25:05;;;;;;;6.22;5.03;;;20.30;94.10;;;;;;5102864;28;20019;-66
2022/09/08 13:27:55;;;;;;;9.23;4.70;;;20.20;93.80;;;;;;5093535;28;20019;-65
2022/09/08 13:30:26;;;;;;;7.72;5.15;;;20.20;94.20;;;;;;5108091;28;20020;-65
2022/09/08 13:33:03;;;;;;;7.88;5.07;;;20.20;94.80;;;;;;5085006;28;20562;-66
2022/09/08 13:35:56;;;;;;;7.97;5.25;;;20.10;95.60;;;;;;5067046;28;20047;-66
2022/09/08 13:38:46;;;;;;;9.23;5.70;;;20.00;95.90;;;;;;5092630;28;20250;-65